Time,TemperatureF,DewpointF,PressureIn,WindDirection,WindDirectionDegrees,WindSpeedMPH,WindSpeedGustMPH,Humidity,HourlyPrecipIn,Conditions,Clouds,dailyrainin,SoftwareType,DateUTC
2013-01-08 00:03:00,27.3,24.2,30.19,SW,224,9.0,13.0,88,0.00,,,0.00,Wunderground v.1.15,2013-01-08 05:03:00,
2013-01-08 00:07:00,27.7,24.6,30.19,SSW,200,10.0,13.0,88,0.00,,,0.00,Wunderground v.1.15,2013-01-08 05:07:00,
2013-01-08 00:13:00,28.3,24.9,30.19,SSW,194,9.0,11.0,87,0.00,,,0.00,Wunderground v.1.15,2013-01-08 05:13:00,
2013-01-08 00:15:00,28.4,25.0,30.19,SSW,203,9.0,11.0,87,0.00,,,0.00,Wunderground v.1.15,2013-01-08 05:15:00,
2013-01-08 00:21:00,28.6,24.9,30.19,SSW,208,9.0,10.0,86,0.00,,,0.00,Wunderground v.1.15,2013-01-08 05:21:00,
2013-01-08 00:27:00,28.3,24.4,30.19,SSW,195,9.0,10.0,85,0.00,,,0.00,Wunderground v.1.15,2013-01-08 05:27:00,
2013-01-08 00:33:00,27.8,24.2,30.19,SSW,205,9.0,9.0,86,0.00,,,0.00,Wunderground v.1.15,2013-01-08 05:33:00,
2013-01-08 00:39:00,27.7,24.1,30.19,SSW,193,8.0,8.0,86,0.00,,,0.00,Wunderground v.1.15,2013-01-08 05:39:00,
2013-01-08 00:45:00,27.7,24.3,30.18,SSW,202,8.0,8.0,87,0.00,,,0.00,Wunderground v.1.15,2013-01-08 05:45:00,
2013-01-08 00:51:00,28.2,24.8,30.17,South,190,7.0,8.0,87,0.00,,,0.00,Wunderground v.1.15,2013-01-08 05:51:00,
2013-01-08 00:57:00,28.5,24.8,30.17,SSW,202,6.0,8.0,86,0.00,,,0.00,Wunderground v.1.15,2013-01-08 05:57:00,
2013-01-08 01:03:00,28.3,24.4,30.17,SSW,211,7.0,9.0,85,0.00,,,0.00,Wunderground v.1.15,2013-01-08 06:03:00,
2013-01-08 01:09:00,28.1,24.2,30.17,SSW,197,8.0,10.0,85,0.00,,,0.00,Wunderground v.1.15,2013-01-08 06:09:00,
2013-01-08 01:15:00,28.1,24.5,30.17,SSW,197,9.0,10.0,86,0.00,,,0.00,Wunderground v.1.15,2013-01-08 06:15:00,
2013-01-08 01:21:00,28.1,24.5,30.17,SSW,193,10.0,12.0,86,0.00,,,0.00,Wunderground v.1.15,2013-01-08 06:21:00,
2013-01-08 01:27:00,28.1,24.5,30.17,SSW,204,10.0,12.0,86,0.00,,,0.00,Wunderground v.1.15,2013-01-08 06:27:00,
2013-01-08 01:33:00,28.1,24.5,30.18,SW,219,10.0,10.0,86,0.00,,,0.00,Wunderground v.1.15,2013-01-08 06:33:00,
2013-01-08 01:39:00,28.4,24.7,30.18,SW,225,10.0,12.0,86,0.00,,,0.00,Wunderground v.1.15,2013-01-08 06:39:00,
2013-01-08 01:45:00,28.2,24.3,30.18,SSW,210,9.0,12.0,85,0.00,,,0.00,Wunderground v.1.15,2013-01-08 06:45:00,
2013-01-08 01:51:00,28.3,24.6,30.19,SW,217,8.0,8.0,86,0.00,,,0.00,Wunderground v.1.15,2013-01-08 06:51:00,
2013-01-08 01:57:00,28.6,24.4,30.19,SW,219,8.0,10.0,84,0.00,,,0.00,Wunderground v.1.15,2013-01-08 06:57:00,
2013-01-08 02:03:00,27.8,23.6,30.19,SSW,205,7.0,8.0,84,0.00,,,0.00,Wunderground v.1.15,2013-01-08 07:03:00,
2013-01-08 02:09:00,27.1,23.5,30.19,SSW,208,6.0,6.0,86,0.00,,,0.00,Wunderground v.1.15,2013-01-08 07:09:00,
2013-01-08 02:15:00,26.7,22.8,30.20,SSW,207,5.0,6.0,85,0.00,,,0.00,Wunderground v.1.15,2013-01-08 07:15:00,
2013-01-08 02:21:00,26.5,23.2,30.20,SW,233,4.0,4.0,87,0.00,,,0.00,Wunderground v.1.15,2013-01-08 07:21:00,
2013-01-08 02:27:00,26.6,23.0,30.21,WSW,242,4.0,4.0,86,0.00,,,0.00,Wunderground v.1.15,2013-01-08 07:27:00,
2013-01-08 02:33:00,26.8,23.4,30.21,WSW,257,4.0,4.0,87,0.00,,,0.00,Wunderground v.1.15,2013-01-08 07:33:00,
2013-01-08 02:39:00,27.1,23.7,30.21,WSW,243,4.0,4.0,87,0.00,,,0.00,Wunderground v.1.15,2013-01-08 07:39:00,
2013-01-08 02:45:00,27.5,23.9,30.21,WSW,243,4.0,4.0,86,0.00,,,0.00,Wunderground v.1.15,2013-01-08 07:45:00,
2013-01-08 02:51:00,25.5,20.8,30.22,WSW,240,2.0,3.0,82,0.00,,,0.00,Wunderground v.1.15,2013-01-08 07:51:00,
2013-01-08 02:57:00,24.2,20.9,30.21,WSW,249,2.0,3.0,87,0.00,,,0.00,Wunderground v.1.15,2013-01-08 07:57:00,
2013-01-08 03:03:00,25.9,23.1,30.21,WSW,242,4.0,5.0,89,0.00,,,0.00,Wunderground v.1.15,2013-01-08 08:03:00,
2013-01-08 03:09:00,26.3,23.0,30.21,WSW,240,4.0,4.0,87,0.00,,,0.00,Wunderground v.1.15,2013-01-08 08:09:00,
2013-01-08 03:15:00,25.9,22.6,30.21,SW,235,4.0,4.0,87,0.00,,,0.00,Wunderground v.1.15,2013-01-08 08:15:00,
2013-01-08 03:21:00,25.5,21.9,30.21,SW,217,4.0,5.0,86,0.00,,,0.00,Wunderground v.1.15,2013-01-08 08:21:00,
2013-01-08 03:27:00,24.8,21.8,30.21,SSW,205,5.0,7.0,88,0.00,,,0.00,Wunderground v.1.15,2013-01-08 08:27:00,
2013-01-08 03:33:00,24.7,21.7,30.21,SSW,203,6.0,6.0,88,0.00,,,0.00,Wunderground v.1.15,2013-01-08 08:33:00,
2013-01-08 03:39:00,24.2,21.2,30.21,SSW,197,6.0,6.0,88,0.00,,,0.00,Wunderground v.1.15,2013-01-08 08:39:00,
2013-01-08 03:45:00,23.9,20.9,30.21,SSW,194,5.0,6.0,88,0.00,,,0.00,Wunderground v.1.15,2013-01-08 08:45:00,
2013-01-08 03:51:00,24.0,21.2,30.20,SSW,200,4.0,4.0,89,0.00,,,0.00,Wunderground v.1.15,2013-01-08 08:51:00,
2013-01-08 03:57:00,24.3,21.8,30.20,SSW,200,4.0,4.0,90,0.00,,,0.00,Wunderground v.1.15,2013-01-08 08:57:00,
2013-01-08 04:03:00,24.5,21.7,30.20,SSW,200,4.0,5.0,89,0.00,,,0.00,Wunderground v.1.15,2013-01-08 09:03:00,
2013-01-08 04:09:00,24.7,21.9,30.20,South,170,4.0,4.0,89,0.00,,,0.00,Wunderground v.1.15,2013-01-08 09:09:00,
2013-01-08 04:15:00,24.8,22.0,30.20,South,183,4.0,4.0,89,0.00,,,0.00,Wunderground v.1.15,2013-01-08 09:15:00,
2013-01-08 04:21:00,24.6,21.6,30.20,SSE,153,2.0,3.0,88,0.00,,,0.00,Wunderground v.1.15,2013-01-08 09:21:00,
2013-01-08 04:27:00,23.9,20.9,30.20,SSE,158,1.0,3.0,88,0.00,,,0.00,Wunderground v.1.15,2013-01-08 09:27:00,
2013-01-08 04:33:00,23.4,20.6,30.20,SSW,195,1.0,4.0,89,0.00,,,0.00,Wunderground v.1.15,2013-01-08 09:33:00,
2013-01-08 04:39:00,23.2,20.4,30.20,SSW,205,1.0,2.0,89,0.00,,,0.00,Wunderground v.1.15,2013-01-08 09:39:00,
2013-01-08 04:45:00,23.2,20.7,30.20,SSW,207,2.0,3.0,90,0.00,,,0.00,Wunderground v.1.15,2013-01-08 09:45:00,
2013-01-08 04:51:00,23.1,20.6,30.20,South,188,3.0,3.0,90,0.00,,,0.00,Wunderground v.1.15,2013-01-08 09:51:00,
2013-01-08 04:57:00,23.3,20.8,30.20,South,187,3.0,4.0,90,0.00,,,0.00,Wunderground v.1.15,2013-01-08 09:57:00,
2013-01-08 05:03:00,23.3,20.8,30.20,SSW,195,2.0,3.0,90,0.00,,,0.00,Wunderground v.1.15,2013-01-08 10:03:00,
2013-01-08 05:09:00,23.2,20.7,30.20,SSW,212,1.0,1.0,90,0.00,,,0.00,Wunderground v.1.15,2013-01-08 10:09:00,
2013-01-08 05:15:00,23.1,20.9,30.20,SSE,158,0.0,1.0,91,0.00,,,0.00,Wunderground v.1.15,2013-01-08 10:15:00,
2013-01-08 05:21:00,23.0,20.8,30.20,SSW,204,1.0,2.0,91,0.00,,,0.00,Wunderground v.1.15,2013-01-08 10:21:00,
2013-01-08 05:27:00,22.9,20.7,30.19,SSW,193,0.0,2.0,91,0.00,,,0.00,Wunderground v.1.15,2013-01-08 10:27:00,
2013-01-08 05:33:00,22.7,20.2,30.19,South,170,0.0,1.0,90,0.00,,,0.00,Wunderground v.1.15,2013-01-08 10:33:00,
2013-01-08 05:39:00,22.4,19.9,30.20,SE,141,0.0,0.0,90,0.00,,,0.00,Wunderground v.1.15,2013-01-08 10:39:00,
2013-01-08 05:45:00,22.0,19.5,30.19,ESE,102,0.0,0.0,90,0.00,,,0.00,Wunderground v.1.15,2013-01-08 10:45:00,
2013-01-08 05:51:00,21.7,19.5,30.19,South,187,0.0,0.0,91,0.00,,,0.00,Wunderground v.1.15,2013-01-08 10:51:00,
2013-01-08 05:57:00,21.7,19.7,30.19,SSW,200,0.0,0.0,92,0.00,,,0.00,Wunderground v.1.15,2013-01-08 10:57:00,
2013-01-08 06:03:00,22.1,20.4,30.20,South,184,1.0,4.0,93,0.00,,,0.00,Wunderground v.1.15,2013-01-08 11:03:00,
2013-01-08 06:09:00,22.3,20.3,30.20,SW,215,1.0,1.0,92,0.00,,,0.00,Wunderground v.1.15,2013-01-08 11:09:00,
2013-01-08 06:15:00,22.4,20.4,30.20,SSW,193,1.0,1.0,92,0.00,,,0.00,Wunderground v.1.15,2013-01-08 11:15:00,
2013-01-08 06:21:00,22.3,20.3,30.20,SSW,204,0.0,1.0,92,0.00,,,0.00,Wunderground v.1.15,2013-01-08 11:21:00,
2013-01-08 06:27:00,22.4,20.4,30.20,SSW,203,1.0,1.0,92,0.00,,,0.00,Wunderground v.1.15,2013-01-08 11:27:00,
2013-01-08 06:33:00,22.3,20.1,30.20,WSW,247,1.0,1.0,91,0.00,,,0.00,Wunderground v.1.15,2013-01-08 11:33:00,
2013-01-08 06:39:00,22.1,19.9,30.20,SSE,149,0.0,1.0,91,0.00,,,0.00,Wunderground v.1.15,2013-01-08 11:39:00,
2013-01-08 06:45:00,22.0,20.0,30.20,SE,146,0.0,1.0,92,0.00,,,0.00,Wunderground v.1.15,2013-01-08 11:45:00,
2013-01-08 06:51:00,22.0,20.0,30.20,SE,146,0.0,0.0,92,0.00,,,0.00,Wunderground v.1.15,2013-01-08 11:51:00,
2013-01-08 06:57:00,21.9,19.9,30.20,SSE,149,0.0,1.0,92,0.00,,,0.00,Wunderground v.1.15,2013-01-08 11:57:00,
2013-01-08 07:03:00,22.0,20.0,30.20,SSE,153,0.0,0.0,92,0.00,,,0.00,Wunderground v.1.15,2013-01-08 12:03:00,
2013-01-08 07:09:00,21.8,19.8,30.20,SE,143,0.0,0.0,92,0.00,,,0.00,Wunderground v.1.15,2013-01-08 12:09:00,
2013-01-08 07:15:00,21.6,19.6,30.21,SE,142,0.0,0.0,92,0.00,,,0.00,Wunderground v.1.15,2013-01-08 12:15:00,
2013-01-08 07:21:00,21.6,19.6,30.21,SSE,149,0.0,1.0,92,0.00,,,0.00,Wunderground v.1.15,2013-01-08 12:21:00,
2013-01-08 07:27:00,21.6,19.6,30.21,SSE,149,0.0,1.0,92,0.00,,,0.00,Wunderground v.1.15,2013-01-08 12:27:00,
2013-01-08 07:33:00,21.6,19.6,30.21,SE,136,0.0,1.0,92,0.00,,,0.00,Wunderground v.1.15,2013-01-08 12:33:00,
2013-01-08 07:39:00,21.5,19.5,30.21,SSE,153,1.0,1.0,92,0.00,,,0.00,Wunderground v.1.15,2013-01-08 12:39:00,
2013-01-08 07:45:00,21.3,19.3,30.21,SE,141,0.0,1.0,92,0.00,,,0.00,Wunderground v.1.15,2013-01-08 12:45:00,
2013-01-08 07:51:00,21.3,19.3,30.22,SE,145,0.0,2.0,92,0.00,,,0.00,Wunderground v.1.15,2013-01-08 12:51:00,
2013-01-08 07:57:00,21.4,19.7,30.22,South,184,1.0,2.0,93,0.00,,,0.00,Wunderground v.1.15,2013-01-08 12:57:00,
2013-01-08 08:03:00,21.3,19.3,30.22,SE,146,1.0,1.0,92,0.00,,,0.00,Wunderground v.1.15,2013-01-08 13:03:00,
2013-01-08 08:09:00,21.5,19.8,30.22,SSE,148,1.0,1.0,93,0.00,,,0.00,Wunderground v.1.15,2013-01-08 13:09:00,
2013-01-08 08:15:00,21.6,19.6,30.22,South,187,1.0,1.0,92,0.00,,,0.00,Wunderground v.1.15,2013-01-08 13:15:00,
2013-01-08 08:21:00,21.6,19.6,30.23,South,190,0.0,0.0,92,0.00,,,0.00,Wunderground v.1.15,2013-01-08 13:21:00,
2013-01-08 08:27:00,21.5,19.5,30.23,SSE,151,1.0,1.0,92,0.00,,,0.00,Wunderground v.1.15,2013-01-08 13:27:00,
2013-01-08 08:33:00,21.4,19.4,30.23,SE,139,0.0,1.0,92,0.00,,,0.00,Wunderground v.1.15,2013-01-08 13:33:00,
2013-01-08 08:39:00,21.5,19.5,30.23,SE,141,0.0,0.0,92,0.00,,,0.00,Wunderground v.1.15,2013-01-08 13:39:00,
2013-01-08 08:45:00,21.3,19.3,30.24,SE,140,0.0,1.0,92,0.00,,,0.00,Wunderground v.1.15,2013-01-08 13:45:00,
2013-01-08 08:51:00,21.2,19.2,30.24,SE,139,0.0,0.0,92,0.00,,,0.00,Wunderground v.1.15,2013-01-08 13:51:00,
2013-01-08 08:57:00,21.6,19.9,30.24,SE,124,0.0,3.0,93,0.00,,,0.00,Wunderground v.1.15,2013-01-08 13:57:00,
2013-01-08 09:03:00,22.0,20.3,30.24,South,184,0.0,1.0,93,0.00,,,0.00,Wunderground v.1.15,2013-01-08 14:03:00,
2013-01-08 09:09:00,22.5,20.8,30.24,South,188,0.0,0.0,93,0.00,,,0.00,Wunderground v.1.15,2013-01-08 14:09:00,
2013-01-08 09:15:00,23.0,21.3,30.25,SW,214,1.0,1.0,93,0.00,,,0.00,Wunderground v.1.15,2013-01-08 14:15:00,
2013-01-08 09:21:00,23.6,21.6,30.24,SSW,197,2.0,2.0,92,0.00,,,0.00,Wunderground v.1.15,2013-01-08 14:21:00,
2013-01-08 09:27:00,24.0,22.0,30.24,SSW,203,2.0,3.0,92,0.00,,,0.00,Wunderground v.1.15,2013-01-08 14:27:00,
2013-01-08 09:33:00,24.2,22.0,30.25,SSW,200,3.0,4.0,91,0.00,,,0.00,Wunderground v.1.15,2013-01-08 14:33:00,
2013-01-08 09:39:00,24.7,22.2,30.25,SSW,204,3.0,3.0,90,0.00,,,0.00,Wunderground v.1.15,2013-01-08 14:39:00,
2013-01-08 09:45:00,25.3,22.8,30.25,SSW,208,3.0,4.0,90,0.00,,,0.00,Wunderground v.1.15,2013-01-08 14:45:00,
2013-01-08 09:51:00,25.9,23.4,30.25,SE,142,3.0,3.0,90,0.00,,,0.00,Wunderground v.1.15,2013-01-08 14:51:00,
2013-01-08 09:57:00,26.5,23.7,30.26,SSW,194,3.0,4.0,89,0.00,,,0.00,Wunderground v.1.15,2013-01-08 14:57:00,
2013-01-08 10:03:00,27.0,23.9,30.26,SSW,200,4.0,5.0,88,0.00,,,0.00,Wunderground v.1.15,2013-01-08 15:03:00,
2013-01-08 10:09:00,27.2,24.1,30.26,SSW,201,5.0,5.0,88,0.00,,,0.00,Wunderground v.1.15,2013-01-08 15:09:00,
2013-01-08 10:15:00,27.5,24.4,30.27,SSW,201,5.0,6.0,88,0.00,,,0.00,Wunderground v.1.15,2013-01-08 15:15:00,
2013-01-08 10:21:00,28.0,24.9,30.27,South,179,5.0,5.0,88,0.00,,,0.00,Wunderground v.1.15,2013-01-08 15:21:00,
2013-01-08 10:27:00,28.5,25.1,30.27,SSW,197,3.0,5.0,87,0.00,,,0.00,Wunderground v.1.15,2013-01-08 15:27:00,
2013-01-08 10:33:00,29.1,25.4,30.27,SSW,208,2.0,5.0,86,0.00,,,0.00,Wunderground v.1.15,2013-01-08 15:33:00,
2013-01-08 10:39:00,29.7,25.7,30.27,SE,128,2.0,2.0,85,0.00,,,0.00,Wunderground v.1.15,2013-01-08 15:39:00,
2013-01-08 10:45:00,30.1,25.8,30.27,ESE,114,1.0,3.0,84,0.00,,,0.00,Wunderground v.1.15,2013-01-08 15:45:00,
2013-01-08 10:51:00,30.6,26.3,30.27,SSW,210,1.0,1.0,84,0.00,,,0.00,Wunderground v.1.15,2013-01-08 15:51:00,
2013-01-08 10:57:00,30.9,26.6,30.27,SW,219,1.0,1.0,84,0.00,,,0.00,Wunderground v.1.15,2013-01-08 15:57:00,
2013-01-08 11:03:00,31.4,26.8,30.27,SSW,207,1.0,1.0,83,0.00,,,0.00,Wunderground v.1.15,2013-01-08 16:03:00,
2013-01-08 11:09:00,32.3,27.7,30.26,SW,226,0.0,0.0,83,0.00,,,0.00,Wunderground v.1.15,2013-01-08 16:09:00,
2013-01-08 11:15:00,32.9,27.7,30.26,East,94,0.0,0.0,81,0.00,,,0.00,Wunderground v.1.15,2013-01-08 16:15:00,
2013-01-08 11:21:00,34.1,28.6,30.26,SW,226,0.0,0.0,80,0.00,,,0.00,Wunderground v.1.15,2013-01-08 16:21:00,
2013-01-08 11:27:00,35.5,29.3,30.26,SSE,164,0.0,0.0,78,0.00,,,0.00,Wunderground v.1.15,2013-01-08 16:27:00,
2013-01-08 11:33:00,36.1,29.3,30.25,SSW,204,0.0,3.0,76,0.00,,,0.00,Wunderground v.1.15,2013-01-08 16:33:00,
2013-01-08 11:40:00,36.5,29.7,30.25,SSW,203,2.0,4.0,76,0.00,,,0.00,Wunderground v.1.15,2013-01-08 16:40:00,
2013-01-08 11:45:00,36.4,29.9,30.25,SSW,193,4.0,5.0,77,0.00,,,0.00,Wunderground v.1.15,2013-01-08 16:45:00,
2013-01-08 11:51:00,36.4,29.9,30.25,South,186,4.0,4.0,77,0.00,,,0.00,Wunderground v.1.15,2013-01-08 16:51:00,
2013-01-08 11:57:00,36.5,30.0,30.24,SSW,201,4.0,6.0,77,0.00,,,0.00,Wunderground v.1.15,2013-01-08 16:57:00,
2013-01-08 12:03:00,36.5,30.0,30.24,SSW,210,5.0,5.0,77,0.00,,,0.00,Wunderground v.1.15,2013-01-08 17:03:00,
2013-01-08 12:09:00,36.4,30.2,30.24,SSW,197,5.0,5.0,78,0.00,,,0.00,Wunderground v.1.15,2013-01-08 17:09:00,
2013-01-08 12:15:00,36.6,30.1,30.23,SSW,203,4.0,5.0,77,0.00,,,0.00,Wunderground v.1.15,2013-01-08 17:15:00,
2013-01-08 12:21:00,37.0,30.1,30.23,SSW,211,4.0,6.0,76,0.00,,,0.00,Wunderground v.1.15,2013-01-08 17:21:00,
2013-01-08 12:27:00,37.1,29.9,30.23,SSW,197,5.0,6.0,75,0.00,,,0.00,Wunderground v.1.15,2013-01-08 17:27:00,
2013-01-08 12:33:00,36.8,29.9,30.23,SW,233,6.0,6.0,76,0.00,,,0.00,Wunderground v.1.15,2013-01-08 17:33:00,
2013-01-08 12:39:00,36.9,30.0,30.23,South,188,5.0,6.0,76,0.00,,,0.00,Wunderground v.1.15,2013-01-08 17:39:00,
2013-01-08 12:45:00,37.0,30.1,30.22,SSW,211,5.0,10.0,76,0.00,,,0.00,Wunderground v.1.15,2013-01-08 17:45:00,
2013-01-08 12:51:00,37.0,29.8,30.22,South,190,6.0,8.0,75,0.00,,,0.00,Wunderground v.1.15,2013-01-08 17:51:00,
2013-01-08 12:57:00,37.2,30.0,30.22,SSE,168,6.0,8.0,75,0.00,,,0.00,Wunderground v.1.15,2013-01-08 17:57:00,
2013-01-08 13:03:00,37.2,30.0,30.22,SSW,198,7.0,9.0,75,0.00,,,0.00,Wunderground v.1.15,2013-01-08 18:03:00,
2013-01-08 13:09:00,37.4,30.2,30.22,SSW,208,7.0,7.0,75,0.00,,,0.00,Wunderground v.1.15,2013-01-08 18:09:00,
2013-01-08 13:15:00,37.5,30.6,30.22,SSW,198,7.0,9.0,76,0.00,,,0.00,Wunderground v.1.15,2013-01-08 18:15:00,
2013-01-08 13:21:00,37.7,30.5,30.22,SSW,200,7.0,7.0,75,0.00,,,0.00,Wunderground v.1.15,2013-01-08 18:21:00,
2013-01-08 13:27:00,38.2,30.6,30.21,SSW,201,7.0,9.0,74,0.00,,,0.00,Wunderground v.1.15,2013-01-08 18:27:00,
2013-01-08 13:33:00,38.4,30.8,30.22,SSW,203,7.0,8.0,74,0.00,,,0.00,Wunderground v.1.15,2013-01-08 18:33:00,
2013-01-08 13:39:00,38.6,31.0,30.22,SSW,198,6.0,6.0,74,0.00,,,0.00,Wunderground v.1.15,2013-01-08 18:39:00,
2013-01-08 13:45:00,38.8,30.9,30.21,SSW,201,6.0,7.0,73,0.00,,,0.00,Wunderground v.1.15,2013-01-08 18:45:00,
2013-01-08 13:51:00,38.8,31.2,30.21,SSW,210,7.0,8.0,74,0.00,,,0.00,Wunderground v.1.15,2013-01-08 18:51:00,
2013-01-08 13:57:00,38.8,31.2,30.21,SSW,197,7.0,8.0,74,0.00,,,0.00,Wunderground v.1.15,2013-01-08 18:57:00,
2013-01-08 14:03:00,39.2,30.9,30.21,SW,214,6.0,7.0,72,0.00,,,0.00,Wunderground v.1.15,2013-01-08 19:03:00,
2013-01-08 14:09:00,39.6,31.3,30.21,SSW,203,5.0,5.0,72,0.00,,,0.00,Wunderground v.1.15,2013-01-08 19:09:00,
2013-01-08 14:15:00,39.4,31.5,30.21,SSW,201,6.0,7.0,73,0.00,,,0.00,Wunderground v.1.15,2013-01-08 19:15:00,
2013-01-08 14:21:00,39.2,31.6,30.21,SSW,203,6.0,6.0,74,0.00,,,0.00,Wunderground v.1.15,2013-01-08 19:21:00,
2013-01-08 14:27:00,39.3,31.7,30.20,SSW,200,6.0,7.0,74,0.00,,,0.00,Wunderground v.1.15,2013-01-08 19:27:00,
2013-01-08 14:33:00,39.3,31.7,30.20,SSW,203,6.0,6.0,74,0.00,,,0.00,Wunderground v.1.15,2013-01-08 19:33:00,
2013-01-08 14:39:00,40.1,31.8,30.21,SSW,211,5.0,5.0,72,0.00,,,0.00,Wunderground v.1.15,2013-01-08 19:39:00,
2013-01-08 14:45:00,41.0,33.0,30.21,SSW,205,2.0,5.0,73,0.00,,,0.00,Wunderground v.1.15,2013-01-08 19:45:00,
2013-01-08 14:51:00,41.3,33.6,30.21,SSW,210,2.0,2.0,74,0.00,,,0.00,Wunderground v.1.15,2013-01-08 19:51:00,
2013-01-08 14:57:00,42.3,33.9,30.21,SSW,205,1.0,2.0,72,0.00,,,0.00,Wunderground v.1.15,2013-01-08 19:57:00,
2013-01-08 15:03:00,42.9,33.8,30.21,SSW,208,0.0,2.0,70,0.00,,,0.00,Wunderground v.1.15,2013-01-08 20:03:00,
2013-01-08 15:09:00,43.1,34.3,30.21,South,190,0.0,0.0,71,0.00,,,0.00,Wunderground v.1.15,2013-01-08 20:09:00,
2013-01-08 15:15:00,44.3,34.8,30.21,SSW,211,0.0,0.0,69,0.00,,,0.00,Wunderground v.1.15,2013-01-08 20:15:00,
2013-01-08 15:21:00,44.3,33.7,30.21,SSW,207,0.0,1.0,66,0.00,,,0.00,Wunderground v.1.15,2013-01-08 20:21:00,
2013-01-08 15:27:00,42.8,33.3,30.21,SSW,193,1.0,2.0,69,0.00,,,0.00,Wunderground v.1.15,2013-01-08 20:27:00,
2013-01-08 15:33:00,43.6,34.5,30.21,SW,219,0.0,1.0,70,0.00,,,0.00,Wunderground v.1.15,2013-01-08 20:33:00,
2013-01-08 15:39:00,44.1,34.6,30.21,SSW,194,0.0,0.0,69,0.00,,,0.00,Wunderground v.1.15,2013-01-08 20:39:00,
2013-01-08 15:45:00,45.4,35.1,30.21,ENE,78,0.0,0.0,67,0.00,,,0.00,Wunderground v.1.15,2013-01-08 20:45:00,
2013-01-08 15:51:00,45.4,34.3,30.21,SSW,198,0.0,1.0,65,0.00,,,0.00,Wunderground v.1.15,2013-01-08 20:51:00,
2013-01-08 15:57:00,43.6,33.0,30.22,SSE,153,1.0,3.0,66,0.00,,,0.00,Wunderground v.1.15,2013-01-08 20:57:00,
2013-01-08 16:03:00,43.1,33.3,30.22,SSE,149,1.0,1.0,68,0.00,,,0.00,Wunderground v.1.15,2013-01-08 21:03:00,
2013-01-08 16:09:00,42.6,33.5,30.22,SSE,150,0.0,0.0,70,0.00,,,0.00,Wunderground v.1.15,2013-01-08 21:09:00,
2013-01-08 16:15:00,42.5,33.0,30.22,SE,140,0.0,0.0,69,0.00,,,0.00,Wunderground v.1.15,2013-01-08 21:15:00,
2013-01-08 16:21:00,42.2,32.8,30.21,ESE,121,0.0,1.0,69,0.00,,,0.00,Wunderground v.1.15,2013-01-08 21:21:00,
2013-01-08 16:27:00,42.3,33.2,30.21,SSW,204,0.0,1.0,70,0.00,,,0.00,Wunderground v.1.15,2013-01-08 21:27:00,
2013-01-08 16:33:00,42.3,32.8,30.21,ESE,121,0.0,0.0,69,0.00,,,0.00,Wunderground v.1.15,2013-01-08 21:33:00,
2013-01-08 16:39:00,41.8,32.4,30.21,SW,215,1.0,1.0,69,0.00,,,0.00,Wunderground v.1.15,2013-01-08 21:39:00,
2013-01-08 16:45:00,41.4,32.3,30.21,SE,124,0.0,1.0,70,0.00,,,0.00,Wunderground v.1.15,2013-01-08 21:45:00,
2013-01-08 16:51:00,40.4,31.7,30.21,SSW,201,0.0,0.0,71,0.00,,,0.00,Wunderground v.1.15,2013-01-08 21:51:00,
2013-01-08 16:58:00,39.6,31.7,30.20,ESE,108,0.0,0.0,73,0.00,,,0.00,Wunderground v.1.15,2013-01-08 21:58:00,
2013-01-08 17:03:00,38.7,31.1,30.21,East,89,0.0,0.0,74,0.00,,,0.00,Wunderground v.1.15,2013-01-08 22:03:00,
2013-01-08 17:09:00,37.8,30.9,30.21,East,89,0.0,0.0,76,0.00,,,0.00,Wunderground v.1.15,2013-01-08 22:09:00,
2013-01-08 17:15:00,37.1,30.6,30.21,East,89,0.0,0.0,77,0.00,,,0.00,Wunderground v.1.15,2013-01-08 22:15:00,
2013-01-08 17:21:00,36.3,30.1,30.21,East,87,0.0,0.0,78,0.00,,,0.00,Wunderground v.1.15,2013-01-08 22:21:00,
2013-01-08 17:27:00,35.3,29.7,30.21,East,88,0.0,0.0,80,0.00,,,0.00,Wunderground v.1.15,2013-01-08 22:27:00,
2013-01-08 17:33:00,34.3,29.4,30.20,East,81,0.0,1.0,82,0.00,,,0.00,Wunderground v.1.15,2013-01-08 22:33:00,
2013-01-08 17:39:00,33.3,28.7,30.20,NE,50,1.0,1.0,83,0.00,,,0.00,Wunderground v.1.15,2013-01-08 22:39:00,
2013-01-08 17:45:00,32.8,28.8,30.20,ENE,75,1.0,1.0,85,0.00,,,0.00,Wunderground v.1.15,2013-01-08 22:45:00,
2013-01-08 17:51:00,32.1,28.1,30.20,ENE,71,1.0,1.0,85,0.00,,,0.00,Wunderground v.1.15,2013-01-08 22:51:00,
2013-01-08 17:57:00,31.6,28.2,30.20,ENE,73,0.0,1.0,87,0.00,,,0.00,Wunderground v.1.15,2013-01-08 22:57:00,
2013-01-08 18:03:00,31.6,28.2,30.20,ENE,73,0.0,1.0,87,0.00,,,0.00,Wunderground v.1.15,2013-01-08 23:03:00,
2013-01-08 18:10:00,31.3,27.9,30.20,ENE,73,0.0,0.0,87,0.00,,,0.00,Wunderground v.1.15,2013-01-08 23:10:00,
2013-01-08 18:15:00,31.0,27.6,30.19,ENE,72,0.0,0.0,87,0.00,,,0.00,Wunderground v.1.15,2013-01-08 23:15:00,
2013-01-08 18:21:00,30.5,27.4,30.20,ENE,72,0.0,0.0,88,0.00,,,0.00,Wunderground v.1.15,2013-01-08 23:21:00,
2013-01-08 18:27:00,30.5,27.6,30.20,ENE,68,0.0,1.0,89,0.00,,,0.00,Wunderground v.1.15,2013-01-08 23:27:00,
2013-01-08 18:33:00,30.0,26.9,30.20,ENE,73,1.0,1.0,88,0.00,,,0.00,Wunderground v.1.15,2013-01-08 23:33:00,
2013-01-08 18:39:00,30.1,27.3,30.20,ENE,72,1.0,1.0,89,0.00,,,0.00,Wunderground v.1.15,2013-01-08 23:39:00,
2013-01-08 18:45:00,30.4,27.5,30.20,ENE,74,0.0,1.0,89,0.00,,,0.00,Wunderground v.1.15,2013-01-08 23:45:00,
2013-01-08 18:51:00,30.5,27.4,30.21,East,98,0.0,0.0,88,0.00,,,0.00,Wunderground v.1.15,2013-01-08 23:51:00,
2013-01-08 18:57:00,30.6,27.5,30.21,East,96,0.0,0.0,88,0.00,,,0.00,Wunderground v.1.15,2013-01-08 23:57:00,
2013-01-08 19:03:00,30.4,27.3,30.21,East,92,0.0,1.0,88,0.00,,,0.00,Wunderground v.1.15,2013-01-09 00:03:00,
2013-01-08 19:09:00,30.1,27.3,30.21,East,90,0.0,0.0,89,0.00,,,0.00,Wunderground v.1.15,2013-01-09 00:09:00,
2013-01-08 19:15:00,29.8,27.0,30.21,East,84,0.0,1.0,89,0.00,,,0.00,Wunderground v.1.15,2013-01-09 00:15:00,
2013-01-08 19:21:00,29.5,26.9,30.20,ENE,61,0.0,1.0,90,0.00,,,0.00,Wunderground v.1.15,2013-01-09 00:21:00,
2013-01-08 19:27:00,29.5,26.9,30.20,ENE,65,1.0,1.0,90,0.00,,,0.00,Wunderground v.1.15,2013-01-09 00:27:00,
2013-01-08 19:33:00,28.5,25.1,30.20,ENE,65,1.0,2.0,87,0.00,,,0.00,Wunderground v.1.15,2013-01-09 00:33:00,
2013-01-08 19:39:00,27.2,23.8,30.20,ENE,67,2.0,2.0,87,0.00,,,0.00,Wunderground v.1.15,2013-01-09 00:39:00,
2013-01-08 19:45:00,26.6,23.8,30.19,ENE,71,2.0,3.0,89,0.00,,,0.00,Wunderground v.1.15,2013-01-09 00:45:00,
2013-01-08 19:51:00,26.0,23.2,30.19,ENE,72,2.0,2.0,89,0.00,,,0.00,Wunderground v.1.15,2013-01-09 00:51:00,
2013-01-08 19:57:00,27.0,25.0,30.19,East,81,1.0,2.0,92,0.00,,,0.00,Wunderground v.1.15,2013-01-09 00:57:00,
2013-01-08 20:03:00,28.0,26.0,30.19,East,80,1.0,1.0,92,0.00,,,0.00,Wunderground v.1.15,2013-01-09 01:03:00,
2013-01-08 20:10:00,28.3,26.3,30.20,East,81,0.0,0.0,92,0.00,,,0.00,Wunderground v.1.15,2013-01-09 01:10:00,
2013-01-08 20:15:00,28.4,26.4,30.20,East,81,0.0,0.0,92,0.00,,,0.00,Wunderground v.1.15,2013-01-09 01:15:00,
2013-01-08 20:21:00,28.5,26.5,30.20,East,81,0.0,0.0,92,0.00,,,0.00,Wunderground v.1.15,2013-01-09 01:21:00,
2013-01-08 20:27:00,28.4,26.4,30.20,East,80,0.0,0.0,92,0.00,,,0.00,Wunderground v.1.15,2013-01-09 01:27:00,
2013-01-08 20:33:00,28.6,26.6,30.20,East,80,0.0,0.0,92,0.00,,,0.00,Wunderground v.1.15,2013-01-09 01:33:00,
2013-01-08 20:39:00,28.6,26.6,30.19,ESE,105,0.0,0.0,92,0.00,,,0.00,Wunderground v.1.15,2013-01-09 01:39:00,
2013-01-08 20:45:00,28.3,26.3,30.19,East,84,0.0,0.0,92,0.00,,,0.00,Wunderground v.1.15,2013-01-09 01:45:00,
2013-01-08 20:51:00,28.4,26.4,30.19,SE,132,0.0,0.0,92,0.00,,,0.00,Wunderground v.1.15,2013-01-09 01:51:00,
2013-01-08 20:57:00,28.6,26.6,30.19,SE,124,0.0,1.0,92,0.00,,,0.00,Wunderground v.1.15,2013-01-09 01:57:00,
2013-01-08 21:03:00,28.6,26.6,30.19,SW,214,0.0,1.0,92,0.00,,,0.00,Wunderground v.1.15,2013-01-09 02:03:00,
2013-01-08 21:09:00,29.7,27.9,30.19,SSE,160,2.0,3.0,93,0.00,,,0.00,Wunderground v.1.15,2013-01-09 02:09:00,
2013-01-08 21:15:00,31.3,29.0,30.19,SSW,196,4.0,7.0,91,0.00,,,0.00,Wunderground v.1.15,2013-01-09 02:15:00,
2013-01-08 21:21:00,32.8,29.6,30.19,SSW,203,6.0,7.0,88,0.00,,,0.00,Wunderground v.1.15,2013-01-09 02:21:00,
2013-01-08 21:27:00,33.5,29.8,30.18,South,183,7.0,7.0,86,0.00,,,0.00,Wunderground v.1.15,2013-01-09 02:27:00,
2013-01-08 21:33:00,33.7,29.1,30.18,SSW,211,5.0,7.0,83,0.00,,,0.00,Wunderground v.1.15,2013-01-09 02:33:00,
2013-01-08 21:40:00,32.2,27.6,30.17,ESE,111,2.0,2.0,83,0.00,,,0.00,Wunderground v.1.15,2013-01-09 02:40:00,
2013-01-08 21:45:00,31.7,28.0,30.17,SSW,196,1.0,2.0,86,0.00,,,0.00,Wunderground v.1.15,2013-01-09 02:45:00,
2013-01-08 21:52:00,32.8,29.1,30.17,SSW,198,3.0,5.0,86,0.00,,,0.00,Wunderground v.1.15,2013-01-09 02:52:00,
2013-01-08 21:57:00,33.5,29.5,30.17,SSW,201,4.0,5.0,85,0.00,,,0.00,Wunderground v.1.15,2013-01-09 02:57:00,
2013-01-08 22:03:00,32.9,28.3,30.17,East,96,3.0,4.0,83,0.00,,,0.00,Wunderground v.1.15,2013-01-09 03:03:00,
2013-01-08 22:09:00,32.1,28.1,30.17,ESE,104,1.0,2.0,85,0.00,,,0.00,Wunderground v.1.15,2013-01-09 03:09:00,
2013-01-08 22:15:00,31.8,27.5,30.18,SE,124,1.0,2.0,84,0.00,,,0.00,Wunderground v.1.15,2013-01-09 03:15:00,
2013-01-08 22:21:00,30.9,26.9,30.17,ESE,109,1.0,1.0,85,0.00,,,0.00,Wunderground v.1.15,2013-01-09 03:21:00,
2013-01-08 22:27:00,30.9,27.8,30.18,South,180,1.0,4.0,88,0.00,,,0.00,Wunderground v.1.15,2013-01-09 03:27:00,
2013-01-08 22:33:00,31.9,28.5,30.18,South,179,2.0,5.0,87,0.00,,,0.00,Wunderground v.1.15,2013-01-09 03:33:00,
2013-01-08 22:39:00,32.2,28.2,30.18,West,270,3.0,3.0,85,0.00,,,0.00,Wunderground v.1.15,2013-01-09 03:39:00,
2013-01-08 22:45:00,31.9,27.9,30.18,SSE,148,2.0,3.0,85,0.00,,,0.00,Wunderground v.1.15,2013-01-09 03:45:00,
2013-01-08 22:51:00,32.2,28.2,30.18,South,172,3.0,3.0,85,0.00,,,0.00,Wunderground v.1.15,2013-01-09 03:51:00,
2013-01-08 22:57:00,32.2,28.2,30.17,SSW,204,3.0,5.0,85,0.00,,,0.00,Wunderground v.1.15,2013-01-09 03:57:00,
2013-01-08 23:03:00,31.8,27.5,30.18,SSE,156,2.0,2.0,84,0.00,,,0.00,Wunderground v.1.15,2013-01-09 04:03:00,
2013-01-08 23:09:00,31.7,27.7,30.18,ESE,114,2.0,2.0,85,0.00,,,0.00,Wunderground v.1.15,2013-01-09 04:09:00,
2013-01-08 23:15:00,30.9,26.6,30.17,WSW,240,1.0,2.0,84,0.00,,,0.00,Wunderground v.1.15,2013-01-09 04:15:00,
2013-01-08 23:21:00,30.6,27.2,30.18,SSE,162,1.0,3.0,87,0.00,,,0.00,Wunderground v.1.15,2013-01-09 04:21:00,
2013-01-08 23:27:00,31.2,27.8,30.18,East,93,2.0,3.0,87,0.00,,,0.00,Wunderground v.1.15,2013-01-09 04:27:00,
2013-01-08 23:33:00,29.9,25.7,30.18,East,94,1.0,2.0,84,0.00,,,0.00,Wunderground v.1.15,2013-01-09 04:33:00,
2013-01-08 23:39:00,28.9,25.2,30.18,ESE,118,0.0,0.0,86,0.00,,,0.00,Wunderground v.1.15,2013-01-09 04:39:00,
2013-01-08 23:45:00,28.9,26.1,30.17,SSW,200,0.0,1.0,89,0.00,,,0.00,Wunderground v.1.15,2013-01-09 04:45:00,
2013-01-08 23:51:00,29.4,26.6,30.18,SSE,168,0.0,0.0,89,0.00,,,0.00,Wunderground v.1.15,2013-01-09 04:51:00,
2013-01-08 23:57:00,29.3,26.2,30.17,ESE,109,0.0,0.0,88,0.00,,,0.00,Wunderground v.1.15,2013-01-09 04:57:00,